createdAt,value
2018-08-21T00:00:32.411Z,18.49
2018-08-21T00:01:32.278Z,18.97
2018-08-21T00:02:32.278Z,18.97
2018-08-21T00:03:32.305Z,19.17
2018-08-21T00:04:32.324Z,18.97
2018-08-21T00:05:32.496Z,19.17
2018-08-21T00:06:32.334Z,19.36
2018-08-21T00:07:32.349Z,19.45
2018-08-21T00:08:32.377Z,19.65
2018-08-21T00:09:32.373Z,19.65
2018-08-21T00:10:32.516Z,19.74
2018-08-21T00:11:32.431Z,19.93
2018-08-21T00:12:32.441Z,19.93
2018-08-21T00:13:32.458Z,20.21
2018-08-21T00:14:32.471Z,19.93
2018-08-21T00:15:32.645Z,20.40
2018-08-21T00:16:32.487Z,20.02
2018-08-21T00:17:32.523Z,20.02
2018-08-21T00:18:32.532Z,20.70
2018-08-21T00:19:32.548Z,20.70
2018-08-21T00:20:32.710Z,20.70
2018-08-21T00:21:32.779Z,20.89
2018-08-21T00:22:32.595Z,20.98
2018-08-21T00:23:32.615Z,20.89
2018-08-21T00:24:32.619Z,20.89
2018-08-21T00:25:32.784Z,20.79
2018-08-21T00:26:32.655Z,21.08
2018-08-21T00:27:32.672Z,21.47
2018-08-21T00:28:32.686Z,21.75
2018-08-21T00:29:32.679Z,21.56
2018-08-21T00:30:32.868Z,21.47
2018-08-21T00:31:32.732Z,21.37
2018-08-21T00:32:32.740Z,21.47
2018-08-21T00:33:32.768Z,21.75
2018-08-21T00:34:32.780Z,22.05
2018-08-21T00:35:32.784Z,22.24
2018-08-21T00:36:32.880Z,22.05
2018-08-21T00:37:32.821Z,22.52
2018-08-21T00:38:32.835Z,22.71
2018-08-21T00:39:32.854Z,22.33
2018-08-21T00:40:32.860Z,22.43
2018-08-21T00:41:33.030Z,22.32
2018-08-21T00:42:32.888Z,22.61
2018-08-21T00:43:32.906Z,22.42
2018-08-21T00:44:32.905Z,22.52
2018-08-21T00:45:32.935Z,22.71
2018-08-21T00:46:33.101Z,22.52
2018-08-21T00:47:32.968Z,23.09
2018-08-21T00:48:32.978Z,23.19
2018-08-21T00:49:32.997Z,23.38
2018-08-21T00:50:33.016Z,23.19
2018-08-21T00:51:33.280Z,23.57
2018-08-21T00:52:33.047Z,23.77
2018-08-21T00:53:33.058Z,23.77
2018-08-21T00:54:33.070Z,23.94
2018-08-21T00:55:33.091Z,24.05
2018-08-21T00:56:33.248Z,24.05
2018-08-21T00:57:33.093Z,24.04
2018-08-21T00:58:33.137Z,23.96
2018-08-21T00:59:33.139Z,23.77
2018-08-21T01:00:33.164Z,24.34
2018-08-21T01:01:33.320Z,23.96
2018-08-21T01:02:33.188Z,24.44
2018-08-21T01:03:33.201Z,24.33
2018-08-21T01:04:33.231Z,24.34
2018-08-21T01:05:33.237Z,24.62
2018-08-21T01:06:33.501Z,24.71
2018-08-21T01:07:33.260Z,25.01
2018-08-21T01:08:33.272Z,25.10
2018-08-21T01:09:33.291Z,24.81
2018-08-21T01:10:33.280Z,24.81
2018-08-21T01:11:33.472Z,25.01
2018-08-21T01:12:33.333Z,25.01
2018-08-21T01:13:33.345Z,25.20
2018-08-21T01:14:33.341Z,25.29
2018-08-21T01:15:33.374Z,25.39
2018-08-21T01:16:33.638Z,25.29
2018-08-21T01:17:33.389Z,25.29
2018-08-21T01:18:33.420Z,25.48
2018-08-21T01:19:33.431Z,25.58
2018-08-21T01:20:33.446Z,26.16
2018-08-21T01:21:33.717Z,26.16
2018-08-21T01:22:33.487Z,26.06
2018-08-21T01:23:33.495Z,26.25
2018-08-21T01:24:33.485Z,26.62
2018-08-21T01:25:33.502Z,26.62
2018-08-21T01:26:33.650Z,27.01
2018-08-21T01:27:33.553Z,26.82
2018-08-21T01:28:33.563Z,26.62
2018-08-21T01:29:33.577Z,27.49
2018-08-21T01:30:33.592Z,27.39
2018-08-21T01:31:33.710Z,26.92
2018-08-21T01:32:33.626Z,27.39
2018-08-21T01:33:33.632Z,27.78
2018-08-21T01:34:33.657Z,27.69
2018-08-21T01:35:33.673Z,28.07
2018-08-21T01:36:33.788Z,28.26
2018-08-21T01:37:33.692Z,27.97
2018-08-21T01:38:33.704Z,28.45
2018-08-21T01:39:33.718Z,27.87
2018-08-21T01:40:33.733Z,28.07
2018-08-21T01:41:33.848Z,28.16
2018-08-21T01:42:33.780Z,28.26
2018-08-21T01:43:33.777Z,28.26
2018-08-21T01:44:33.778Z,28.64
2018-08-21T01:45:33.806Z,28.36
2018-08-21T01:46:33.916Z,28.45
2018-08-21T01:47:33.831Z,28.55
2018-08-21T01:48:33.856Z,28.64
2018-08-21T01:49:33.862Z,28.45
2018-08-21T01:50:33.874Z,28.64
2018-08-21T01:51:34.345Z,28.84
2018-08-21T01:52:33.887Z,28.74
2018-08-21T01:53:33.900Z,29.13
2018-08-21T01:54:34.135Z,28.64
2018-08-21T01:55:33.951Z,29.51
2018-08-21T01:56:34.063Z,29.59
2018-08-21T01:57:33.977Z,29.61
2018-08-21T01:58:33.992Z,29.88
2018-08-21T01:59:34.000Z,29.97
2018-08-21T02:00:33.997Z,30.17
2018-08-21T02:01:34.163Z,30.74
2018-08-21T02:02:34.027Z,30.36
2018-08-21T02:03:34.062Z,30.93
2018-08-21T02:04:34.080Z,31.23
2018-08-21T02:05:34.093Z,31.23
2018-08-21T02:06:34.203Z,31.61
2018-08-21T02:07:34.095Z,31.80
2018-08-21T02:08:34.169Z,31.49
2018-08-21T02:09:34.147Z,31.88
2018-08-21T02:10:34.157Z,31.69
2018-08-21T02:11:34.257Z,31.79
2018-08-21T02:12:34.185Z,32.07
2018-08-21T02:13:34.234Z,32.07
2018-08-21T02:14:34.192Z,32.26
2018-08-21T02:15:34.227Z,32.46
2018-08-21T02:16:34.347Z,32.17
2018-08-21T02:17:34.256Z,32.36
2018-08-21T02:18:34.491Z,32.46
2018-08-21T02:19:34.282Z,32.93
2018-08-21T02:20:34.291Z,33.03
2018-08-21T02:21:34.405Z,33.32
2018-08-21T02:22:34.326Z,33.70
2018-08-21T02:23:34.353Z,33.23
2018-08-21T02:24:34.352Z,33.11
2018-08-21T02:25:34.366Z,33.40
2018-08-21T02:26:34.523Z,32.82
2018-08-21T02:27:34.393Z,33.11
2018-08-21T02:28:34.409Z,33.50
2018-08-21T02:29:34.422Z,33.50
2018-08-21T02:30:34.435Z,34.07
2018-08-21T02:31:34.547Z,34.27
2018-08-21T02:32:34.462Z,34.45
2018-08-21T02:33:34.470Z,34.65
2018-08-21T02:34:34.497Z,35.13
2018-08-21T02:35:34.502Z,34.75
2018-08-21T02:36:34.621Z,34.65
2018-08-21T02:37:34.529Z,34.17
2018-08-21T02:38:34.541Z,34.36
2018-08-21T02:39:34.554Z,34.55
2018-08-21T02:40:34.567Z,35.32
2018-08-21T02:41:34.666Z,35.32
2018-08-21T02:42:34.596Z,35.42
2018-08-21T02:43:34.615Z,35.22
2018-08-21T02:44:34.658Z,34.84
2018-08-21T02:45:34.623Z,35.03
2018-08-21T02:46:34.799Z,35.22
2018-08-21T02:47:34.667Z,34.94
2018-08-21T02:48:34.665Z,35.03
2018-08-21T02:49:34.694Z,35.13
2018-08-21T02:50:34.686Z,35.03
2018-08-21T02:51:34.698Z,35.03
2018-08-21T02:52:34.830Z,34.84
2018-08-21T02:53:34.743Z,34.75
2018-08-21T02:54:34.759Z,34.65
2018-08-21T02:55:34.774Z,35.32
2018-08-21T02:56:34.787Z,35.51
2018-08-21T02:57:34.954Z,35.71
2018-08-21T02:58:34.809Z,35.61
2018-08-21T02:59:34.838Z,35.99
2018-08-21T03:00:35.459Z,35.71
2018-08-21T03:01:34.848Z,35.99
2018-08-21T03:02:34.963Z,36.18
2018-08-21T03:03:34.879Z,36.18
2018-08-21T03:04:34.892Z,35.88
2018-08-21T03:05:34.913Z,35.51
2018-08-21T03:06:34.919Z,35.49
2018-08-21T03:07:35.049Z,35.49
2018-08-21T03:08:34.934Z,35.40
2018-08-21T03:09:34.943Z,35.49
2018-08-21T03:10:34.973Z,35.40
2018-08-21T03:11:34.983Z,35.40
2018-08-21T03:12:35.097Z,35.59
2018-08-21T03:13:35.010Z,36.16
2018-08-21T03:14:35.033Z,35.88
2018-08-21T03:15:35.035Z,35.88
2018-08-21T03:16:35.055Z,36.07
2018-08-21T03:17:35.165Z,35.88
2018-08-21T03:18:35.078Z,35.88
2018-08-21T03:19:35.091Z,36.16
2018-08-21T03:20:35.106Z,36.65
2018-08-21T03:21:35.110Z,36.16
2018-08-21T03:22:35.294Z,36.36
2018-08-21T03:23:35.145Z,36.16
2018-08-21T03:24:35.157Z,36.55
2018-08-21T03:25:35.170Z,36.46
2018-08-21T03:26:35.186Z,35.88
2018-08-21T03:27:35.280Z,36.16
2018-08-21T03:28:35.195Z,36.28
2018-08-21T03:29:35.227Z,36.09
2018-08-21T03:30:35.219Z,35.78
2018-08-21T03:31:35.251Z,35.89
2018-08-21T03:32:35.368Z,35.71
2018-08-21T03:33:35.280Z,35.99
2018-08-21T03:34:35.294Z,35.71
2018-08-21T03:35:35.309Z,35.71
2018-08-21T03:36:35.315Z,35.89
2018-08-21T03:37:35.437Z,35.80
2018-08-21T03:38:35.341Z,35.99
2018-08-21T03:39:35.362Z,35.51
2018-08-21T03:40:35.375Z,35.51
2018-08-21T03:41:35.385Z,35.42
2018-08-21T03:42:35.532Z,35.32
2018-08-21T03:43:35.409Z,35.51
2018-08-21T03:44:35.423Z,35.51
2018-08-21T03:45:35.436Z,35.42
2018-08-21T03:46:35.448Z,35.22
2018-08-21T03:47:35.617Z,35.22
2018-08-21T03:48:35.473Z,35.22
2018-08-21T03:49:35.493Z,35.13
2018-08-21T03:50:35.499Z,35.42
2018-08-21T03:51:35.510Z,35.51
2018-08-21T03:52:35.680Z,35.71
2018-08-21T03:53:35.548Z,35.51
2018-08-21T03:54:35.555Z,35.89
2018-08-21T03:55:35.554Z,35.71
2018-08-21T03:56:35.578Z,35.97
2018-08-21T03:57:35.741Z,36.07
2018-08-21T03:58:36.144Z,35.78
2018-08-21T03:59:35.618Z,36.07
2018-08-21T04:00:35.725Z,36.16
2018-08-21T04:01:35.654Z,36.16
2018-08-21T04:02:35.815Z,36.36
2018-08-21T04:03:35.685Z,36.36
2018-08-21T04:04:35.672Z,36.36
2018-08-21T04:05:35.701Z,36.16
2018-08-21T04:06:35.716Z,36.36
2018-08-21T04:07:35.729Z,36.65
2018-08-21T04:08:35.893Z,36.55
2018-08-21T04:09:35.752Z,36.55
2018-08-21T04:10:35.743Z,36.84
2018-08-21T04:11:35.774Z,36.93
2018-08-21T04:12:35.786Z,36.93
2018-08-21T04:13:35.952Z,36.93
2018-08-21T04:14:35.818Z,36.84
2018-08-21T04:15:35.834Z,37.13
2018-08-21T04:16:35.841Z,37.03
2018-08-21T04:17:35.860Z,37.13
2018-08-21T04:18:36.015Z,36.93
2018-08-21T04:19:35.891Z,37.32
2018-08-21T04:20:35.892Z,37.68
2018-08-21T04:21:35.887Z,37.78
2018-08-21T04:22:35.925Z,37.87
2018-08-21T04:23:36.089Z,37.59
2018-08-21T04:24:36.039Z,37.49
2018-08-21T04:25:35.959Z,38.07
2018-08-21T04:26:35.971Z,38.07
2018-08-21T04:27:35.967Z,38.16
2018-08-21T04:28:36.248Z,38.26
2018-08-21T04:29:36.008Z,38.64
2018-08-21T04:30:36.028Z,39.12
2018-08-21T04:31:36.035Z,39.20
2018-08-21T04:32:36.052Z,39.29
2018-08-21T04:33:36.210Z,39.48
2018-08-21T04:34:36.078Z,39.20
2018-08-21T04:35:36.084Z,39.48
2018-08-21T04:36:36.100Z,39.48
2018-08-21T04:37:36.116Z,40.16
2018-08-21T04:38:36.272Z,40.54
2018-08-21T04:39:36.137Z,40.64
2018-08-21T04:40:36.134Z,40.35
2018-08-21T04:41:36.151Z,40.54
2018-08-21T04:42:36.180Z,40.44
2018-08-21T04:43:36.434Z,40.44
2018-08-21T04:44:36.200Z,40.54
2018-08-21T04:45:36.214Z,40.54
2018-08-21T04:46:36.211Z,40.64
2018-08-21T04:47:36.233Z,40.83
2018-08-21T04:48:36.407Z,40.64
2018-08-21T04:49:36.266Z,40.73
2018-08-21T04:50:36.278Z,41.21
2018-08-21T04:51:36.286Z,41.40
2018-08-21T04:52:36.300Z,41.50
2018-08-21T04:53:36.464Z,41.78
2018-08-21T04:54:36.331Z,41.69
2018-08-21T04:55:36.339Z,41.78
2018-08-21T04:56:36.347Z,41.77
2018-08-21T04:57:36.368Z,41.67
2018-08-21T04:58:36.586Z,42.07
2018-08-21T04:59:36.387Z,42.53
2018-08-21T05:00:36.383Z,42.82
2018-08-21T05:01:36.417Z,42.72
2018-08-21T05:02:36.428Z,42.82
2018-08-21T05:03:36.591Z,42.82
2018-08-21T05:04:36.453Z,42.82
2018-08-21T05:05:36.571Z,42.72
2018-08-21T05:06:36.477Z,43.30
2018-08-21T05:07:36.496Z,42.91
2018-08-21T05:08:36.646Z,43.10
2018-08-21T05:09:36.509Z,43.59
2018-08-21T05:10:36.523Z,43.30
2018-08-21T05:11:36.533Z,43.39
2018-08-21T05:12:36.563Z,43.20
2018-08-21T05:13:36.713Z,43.68
2018-08-21T05:14:36.575Z,43.68
2018-08-21T05:15:36.589Z,42.91
2018-08-21T05:16:36.601Z,43.39
2018-08-21T05:17:36.612Z,43.59
2018-08-21T05:18:36.778Z,43.68
2018-08-21T05:19:36.632Z,43.59
2018-08-21T05:20:36.633Z,43.59
2018-08-21T05:21:36.662Z,43.20
2018-08-21T05:22:36.860Z,43.39
2018-08-21T05:23:36.686Z,43.10
2018-08-21T05:24:36.849Z,43.20
2018-08-21T05:25:36.714Z,43.39
2018-08-21T05:26:36.727Z,43.30
2018-08-21T05:27:36.731Z,43.10
2018-08-21T05:28:36.767Z,43.39
2018-08-21T05:29:37.014Z,43.30
2018-08-21T05:30:36.769Z,43.20
2018-08-21T05:31:36.782Z,43.01
2018-08-21T05:32:36.998Z,43.10
2018-08-21T05:33:36.821Z,43.10
2018-08-21T05:34:36.973Z,42.82
2018-08-21T05:35:36.838Z,42.63
2018-08-21T05:36:36.845Z,42.74
2018-08-21T05:37:36.859Z,42.72
2018-08-21T05:38:36.874Z,42.82
2018-08-21T05:39:37.036Z,42.65
2018-08-21T05:40:36.898Z,42.24
2018-08-21T05:41:36.906Z,42.55
2018-08-21T05:42:36.918Z,42.63
2018-08-21T05:43:36.969Z,42.72
2018-08-21T05:44:37.197Z,42.44
2018-08-21T05:45:36.953Z,42.34
2018-08-21T05:46:36.979Z,42.34
2018-08-21T05:47:37.165Z,42.44
2018-08-21T05:48:36.998Z,42.91
2018-08-21T05:49:37.152Z,43.20
2018-08-21T05:50:37.017Z,43.20
2018-08-21T05:51:37.028Z,43.01
2018-08-21T05:52:37.042Z,43.20
2018-08-21T05:53:37.043Z,43.30
2018-08-21T05:54:37.221Z,43.20
2018-08-21T05:55:37.287Z,43.68
2018-08-21T05:56:37.093Z,43.39
2018-08-21T05:57:37.106Z,43.49
2018-08-21T05:58:37.121Z,43.39
2018-08-21T05:59:37.279Z,43.49
2018-08-21T06:00:37.128Z,43.68
2018-08-21T06:01:37.151Z,43.87
2018-08-21T06:02:37.162Z,43.97
2018-08-21T06:03:37.179Z,43.97
2018-08-21T06:04:37.296Z,44.16
2018-08-21T06:05:37.201Z,44.06
2018-08-21T06:06:37.199Z,44.16
2018-08-21T06:07:37.227Z,44.06
2018-08-21T06:08:37.235Z,44.83
2018-08-21T06:09:37.380Z,44.54
2018-08-21T06:10:37.246Z,44.45
2018-08-21T06:11:37.272Z,44.35
2018-08-21T06:12:37.273Z,44.26
2018-08-21T06:13:37.322Z,44.35
2018-08-21T06:14:37.413Z,44.35
2018-08-21T06:15:37.321Z,44.26
2018-08-21T06:16:37.345Z,44.35
2018-08-21T06:17:37.350Z,44.73
2018-08-21T06:18:37.362Z,44.73
2018-08-21T06:19:37.476Z,44.73
2018-08-21T06:20:37.382Z,44.93
2018-08-21T06:21:37.393Z,44.83
2018-08-21T06:22:37.391Z,44.73
2018-08-21T06:23:37.424Z,44.73
2018-08-21T06:24:37.566Z,44.83
2018-08-21T06:25:37.448Z,44.73
2018-08-21T06:26:37.466Z,44.73
2018-08-21T06:27:37.473Z,44.83
2018-08-21T06:28:37.482Z,44.73
2018-08-21T06:29:37.654Z,44.83
2018-08-21T06:30:37.511Z,44.83
2018-08-21T06:31:37.517Z,45.02
2018-08-21T06:32:37.533Z,44.90
2018-08-21T06:33:37.556Z,45.02
2018-08-21T06:34:37.705Z,45.50
2018-08-21T06:35:37.570Z,45.38
2018-08-21T06:36:37.578Z,45.09
2018-08-21T06:37:37.597Z,45.38
2018-08-21T06:38:37.588Z,45.40
2018-08-21T06:39:37.794Z,45.40
2018-08-21T06:40:37.809Z,45.31
2018-08-21T06:41:37.646Z,45.02
2018-08-21T06:42:37.648Z,45.09
2018-08-21T06:43:37.662Z,45.19
2018-08-21T06:44:37.688Z,45.02
2018-08-21T06:45:37.937Z,45.48
2018-08-21T06:46:37.869Z,45.31
2018-08-21T06:47:37.700Z,45.57
2018-08-21T06:48:37.714Z,45.57
2018-08-21T06:49:37.737Z,45.76
2018-08-21T06:50:38.013Z,45.67
2018-08-21T06:51:37.766Z,45.29
2018-08-21T06:52:37.776Z,45.21
2018-08-21T06:53:37.786Z,45.31
2018-08-21T06:54:37.796Z,45.79
2018-08-21T06:55:37.812Z,45.59
2018-08-21T06:56:37.981Z,45.59
2018-08-21T06:57:37.830Z,45.57
2018-08-21T06:58:37.845Z,45.57
2018-08-21T06:59:37.846Z,45.69
2018-08-21T07:00:37.873Z,45.48
2018-08-21T07:01:38.033Z,45.59
2018-08-21T07:02:37.897Z,45.67
2018-08-21T07:03:37.890Z,45.48
2018-08-21T07:04:37.916Z,45.57
2018-08-21T07:05:37.933Z,45.86
2018-08-21T07:06:38.095Z,46.25
2018-08-21T07:07:37.960Z,45.86
2018-08-21T07:08:37.973Z,45.86
2018-08-21T07:09:37.981Z,45.96
2018-08-21T07:10:38.001Z,45.96
2018-08-21T07:11:38.247Z,45.86
2018-08-21T07:12:38.013Z,45.86
2018-08-21T07:13:38.012Z,45.48
2018-08-21T07:14:38.043Z,45.57
2018-08-21T07:15:38.053Z,45.67
2018-08-21T07:16:38.298Z,45.67
2018-08-21T07:17:38.064Z,45.67
2018-08-21T07:18:38.091Z,45.19
2018-08-21T07:19:38.100Z,45.76
2018-08-21T07:20:38.115Z,45.57
2018-08-21T07:21:38.258Z,45.69
2018-08-21T07:22:38.135Z,45.67
2018-08-21T07:23:38.153Z,45.48
2018-08-21T07:24:38.157Z,45.48
2018-08-21T07:25:38.163Z,45.67
2018-08-21T07:26:38.313Z,45.57
2018-08-21T07:27:38.198Z,45.76
2018-08-21T07:28:38.214Z,45.48
2018-08-21T07:29:38.217Z,45.40
2018-08-21T07:30:38.244Z,44.83
2018-08-21T07:31:38.395Z,44.93
2018-08-21T07:32:38.255Z,44.93
2018-08-21T07:33:38.271Z,44.73
2018-08-21T07:34:38.288Z,44.93
2018-08-21T07:35:38.309Z,44.73
2018-08-21T07:36:38.462Z,44.73
2018-08-21T07:37:38.300Z,44.83
2018-08-21T07:38:38.329Z,44.90
2018-08-21T07:39:38.344Z,44.83
2018-08-21T07:40:38.354Z,44.83
2018-08-21T07:41:38.519Z,44.45
2018-08-21T07:42:38.379Z,44.93
2018-08-21T07:43:38.390Z,44.73
2018-08-21T07:44:38.410Z,44.83
2018-08-21T07:45:38.415Z,44.73
2018-08-21T07:46:38.582Z,45.12
2018-08-21T07:47:38.437Z,45.31
2018-08-21T07:48:38.459Z,45.79
2018-08-21T07:49:38.469Z,45.76
2018-08-21T07:50:38.474Z,45.09
2018-08-21T07:51:38.739Z,45.67
2018-08-21T07:52:38.510Z,45.57
2018-08-21T07:53:38.490Z,45.67
2018-08-21T07:54:38.526Z,45.57
2018-08-21T07:55:38.543Z,45.48
2018-08-21T07:56:38.549Z,45.67
2018-08-21T07:57:38.688Z,45.96
2018-08-21T07:58:38.569Z,46.05
2018-08-21T07:59:38.571Z,45.86
2018-08-21T08:00:38.596Z,46.15
2018-08-21T08:01:38.593Z,45.86
2018-08-21T08:02:38.623Z,45.86
2018-08-21T08:03:38.787Z,46.25
2018-08-21T08:04:38.628Z,46.15
2018-08-21T08:05:38.637Z,46.15
2018-08-21T08:06:38.663Z,46.25
2018-08-21T08:07:38.682Z,46.25
2018-08-21T08:08:38.689Z,46.05
2018-08-21T08:09:38.807Z,46.05
2018-08-21T08:10:38.713Z,46.25
2018-08-21T08:11:38.724Z,46.15
2018-08-21T08:12:38.748Z,46.15
2018-08-21T08:13:38.830Z,46.05
2018-08-21T08:14:38.916Z,46.25
2018-08-21T08:15:38.759Z,46.34
2018-08-21T08:16:38.789Z,46.15
2018-08-21T08:17:38.802Z,46.44
2018-08-21T08:18:38.794Z,46.62
2018-08-21T08:19:39.076Z,46.82
2018-08-21T08:20:38.839Z,46.82
2018-08-21T08:21:38.853Z,46.82
2018-08-21T08:22:38.860Z,46.82
2018-08-21T08:23:38.869Z,46.82
2018-08-21T08:24:39.030Z,46.72
2018-08-21T08:25:38.892Z,46.82
2018-08-21T08:26:38.909Z,46.53
2018-08-21T08:27:38.917Z,46.82
2018-08-21T08:28:38.935Z,46.82
2018-08-21T08:29:39.094Z,46.53
2018-08-21T08:30:38.961Z,46.44
2018-08-21T08:31:38.969Z,46.44
2018-08-21T08:32:38.981Z,46.53
2018-08-21T08:33:38.991Z,46.53
2018-08-21T08:34:39.105Z,46.44
2018-08-21T08:35:39.000Z,46.62
2018-08-21T08:36:39.030Z,46.25
2018-08-21T08:37:39.042Z,46.05
2018-08-21T08:38:39.054Z,46.15
2018-08-21T08:39:39.211Z,46.15
2018-08-21T08:40:39.075Z,46.15
2018-08-21T08:41:39.187Z,46.05
2018-08-21T08:42:39.095Z,46.15
2018-08-21T08:43:39.110Z,45.86
2018-08-21T08:44:39.278Z,46.34
2018-08-21T08:45:39.120Z,46.25
2018-08-21T08:46:39.145Z,45.67
2018-08-21T08:47:39.254Z,45.76
2018-08-21T08:48:39.172Z,45.76
2018-08-21T08:49:39.328Z,45.86
2018-08-21T08:50:39.196Z,46.15
2018-08-21T08:51:39.187Z,45.86
2018-08-21T08:52:39.224Z,45.89
2018-08-21T08:53:39.232Z,46.25
2018-08-21T08:54:39.399Z,46.15
2018-08-21T08:55:39.257Z,46.25
2018-08-21T08:56:39.272Z,46.44
2018-08-21T08:57:39.290Z,46.15
2018-08-21T08:58:39.346Z,46.15
2018-08-21T08:59:39.434Z,46.15
2018-08-21T09:00:39.326Z,46.15
2018-08-21T09:01:39.331Z,46.25
2018-08-21T09:02:39.342Z,46.34
2018-08-21T09:03:39.348Z,46.05
2018-08-21T09:04:39.512Z,46.15
2018-08-21T09:05:39.361Z,46.15
2018-08-21T09:06:39.394Z,46.05
2018-08-21T09:07:39.404Z,46.15
2018-08-21T09:08:39.409Z,46.05
2018-08-21T09:09:39.571Z,46.25
2018-08-21T09:10:39.430Z,46.15
2018-08-21T09:11:39.453Z,46.25
2018-08-21T09:12:39.461Z,46.15
2018-08-21T09:13:39.458Z,46.34
2018-08-21T09:14:39.836Z,46.25
2018-08-21T09:15:39.506Z,46.25
2018-08-21T09:16:39.509Z,46.44
2018-08-21T09:17:39.706Z,46.53
2018-08-21T09:18:39.531Z,46.62
2018-08-21T09:19:39.541Z,46.62
2018-08-21T09:20:39.709Z,46.72
2018-08-21T09:21:39.565Z,46.91
2018-08-21T09:22:39.582Z,47.20
2018-08-21T09:23:39.592Z,47.20
2018-08-21T09:24:39.606Z,47.11
2018-08-21T09:25:39.601Z,47.11
2018-08-21T09:26:39.777Z,47.11
2018-08-21T09:27:39.679Z,47.20
2018-08-21T09:28:39.649Z,47.11
2018-08-21T09:29:39.701Z,47.11
2018-08-21T09:30:39.675Z,47.20
2018-08-21T09:31:39.689Z,47.01
2018-08-21T09:32:39.849Z,46.91
2018-08-21T09:33:39.707Z,46.72
2018-08-21T09:34:39.729Z,46.53
2018-08-21T09:35:39.729Z,46.72
2018-08-21T09:36:39.755Z,46.82
2018-08-21T09:37:39.915Z,46.53
2018-08-21T09:38:39.751Z,46.44
2018-08-21T09:39:39.781Z,46.53
2018-08-21T09:40:39.792Z,46.62
2018-08-21T09:41:39.807Z,46.62
2018-08-21T09:42:40.067Z,46.53
2018-08-21T09:43:39.838Z,46.34
2018-08-21T09:44:39.846Z,46.44
2018-08-21T09:45:39.858Z,46.15
2018-08-21T09:46:39.868Z,46.44
2018-08-21T09:47:40.044Z,46.53
2018-08-21T09:48:39.892Z,46.34
2018-08-21T09:49:39.899Z,46.34
2018-08-21T09:50:39.897Z,46.15
2018-08-21T09:51:39.958Z,46.53
2018-08-21T09:52:40.099Z,46.44
2018-08-21T09:53:39.949Z,46.25
2018-08-21T09:54:39.942Z,46.34
2018-08-21T09:55:39.973Z,46.34
2018-08-21T09:56:39.984Z,46.25
2018-08-21T09:57:40.149Z,46.44
2018-08-21T09:58:40.011Z,46.26
2018-08-21T09:59:40.021Z,46.15
2018-08-21T10:00:40.032Z,46.15
2018-08-21T10:01:40.045Z,46.17
2018-08-21T10:02:40.192Z,46.17
2018-08-21T10:03:40.071Z,45.69
2018-08-21T10:04:40.083Z,45.98
2018-08-21T10:05:40.077Z,45.79
2018-08-21T10:06:40.147Z,45.69
2018-08-21T10:07:40.269Z,45.79
2018-08-21T10:08:40.132Z,45.21
2018-08-21T10:09:40.151Z,45.21
2018-08-21T10:10:40.158Z,44.93
2018-08-21T10:11:40.175Z,45.02
2018-08-21T10:12:40.436Z,44.73
2018-08-21T10:13:40.307Z,44.83
2018-08-21T10:14:40.209Z,44.64
2018-08-21T10:15:40.209Z,44.93
2018-08-21T10:16:40.241Z,44.54
2018-08-21T10:17:40.398Z,44.35
2018-08-21T10:18:40.258Z,44.09
2018-08-21T10:19:40.299Z,44.06
2018-08-21T10:20:40.287Z,43.80
2018-08-21T10:21:40.356Z,43.80
2018-08-21T10:22:40.462Z,43.32
2018-08-21T10:23:40.321Z,43.60
2018-08-21T10:24:40.333Z,43.23
2018-08-21T10:25:40.322Z,42.84
2018-08-21T10:26:40.356Z,42.84
2018-08-21T10:27:40.519Z,42.38
2018-08-21T10:28:40.386Z,42.47
2018-08-21T10:29:40.397Z,41.90
2018-08-21T10:30:40.420Z,41.42
2018-08-21T10:31:40.410Z,41.16
2018-08-21T10:32:40.585Z,40.96
2018-08-21T10:33:40.647Z,40.00
2018-08-21T10:34:40.473Z,39.91
2018-08-21T10:35:40.477Z,39.43
2018-08-21T10:36:40.491Z,39.43
2018-08-21T10:37:40.758Z,39.64
2018-08-21T10:38:40.526Z,38.87
2018-08-21T10:39:40.538Z,39.04
2018-08-21T10:40:40.548Z,39.43
2018-08-21T10:41:40.605Z,39.43
2018-08-21T10:42:40.578Z,39.23
2018-08-21T10:43:40.743Z,39.43
2018-08-21T10:44:40.599Z,39.43
2018-08-21T10:45:40.620Z,39.43
2018-08-21T10:46:40.637Z,39.43
2018-08-21T10:47:40.640Z,40.29
2018-08-21T10:48:40.654Z,40.00
2018-08-21T10:49:40.774Z,39.81
2018-08-21T10:50:40.685Z,39.72
2018-08-21T10:51:40.735Z,39.91
2018-08-21T10:52:40.901Z,40.20
2018-08-21T10:53:40.721Z,40.00
2018-08-21T10:54:40.988Z,40.20
2018-08-21T10:55:40.759Z,39.72
2018-08-21T10:56:40.761Z,39.91
2018-08-21T10:57:40.773Z,39.62
2018-08-21T10:58:40.802Z,39.91
2018-08-21T10:59:41.059Z,39.43
2018-08-21T11:00:40.822Z,39.26
2018-08-21T11:01:40.836Z,39.16
2018-08-21T11:02:40.845Z,38.78
2018-08-21T11:03:40.863Z,38.20
2018-08-21T11:04:40.976Z,38.29
2018-08-21T11:05:40.892Z,38.20
2018-08-21T11:06:40.903Z,38.10
2018-08-21T11:07:40.921Z,37.74
2018-08-21T11:08:40.930Z,37.84
2018-08-21T11:09:41.195Z,37.74
2018-08-21T11:10:40.960Z,36.97
2018-08-21T11:11:40.970Z,36.97
2018-08-21T11:12:40.987Z,37.07
2018-08-21T11:13:41.006Z,36.88
2018-08-21T11:14:41.165Z,36.80
2018-08-21T11:15:41.027Z,36.99
2018-08-21T11:16:41.082Z,37.18
2018-08-21T11:17:41.058Z,36.60
2018-08-21T11:18:41.084Z,36.62
2018-08-21T11:19:41.338Z,35.38
2018-08-21T11:20:41.110Z,34.99
2018-08-21T11:21:41.121Z,34.70
2018-08-21T11:22:41.132Z,33.95
2018-08-21T11:23:41.144Z,33.47
2018-08-21T11:24:41.319Z,33.47
2018-08-21T11:25:41.164Z,32.98
2018-08-21T11:26:41.193Z,33.56
2018-08-21T11:27:41.192Z,32.98
2018-08-21T11:28:41.227Z,32.60
2018-08-21T11:29:41.507Z,32.62
2018-08-21T11:30:41.257Z,32.60
2018-08-21T11:31:41.272Z,32.89
2018-08-21T11:32:41.264Z,33.10
2018-08-21T11:33:41.303Z,33.39
2018-08-21T11:34:41.491Z,31.85
2018-08-21T11:35:41.324Z,31.08
2018-08-21T11:36:41.353Z,31.18
2018-08-21T11:37:41.346Z,31.08
2018-08-21T11:38:41.380Z,31.00
2018-08-21T11:39:41.543Z,30.13
2018-08-21T11:40:41.419Z,30.32
2018-08-21T11:41:41.424Z,29.94
2018-08-21T11:42:41.449Z,29.94
2018-08-21T11:43:41.446Z,30.22
2018-08-21T11:44:41.724Z,30.32
2018-08-21T11:45:41.474Z,30.52
2018-08-21T11:46:41.507Z,29.74
2018-08-21T11:47:41.523Z,29.55
2018-08-21T11:48:41.546Z,29.94
2018-08-21T11:49:41.560Z,30.22
2018-08-21T11:50:41.729Z,29.47
2018-08-21T11:51:41.601Z,29.57
2018-08-21T11:52:41.606Z,29.08
2018-08-21T11:53:41.622Z,28.61
2018-08-21T11:54:41.638Z,28.33
2018-08-21T11:55:41.655Z,27.66
2018-08-21T11:56:41.825Z,28.23
2018-08-21T11:57:41.673Z,28.52
2018-08-21T11:58:41.712Z,28.33
2018-08-21T11:59:41.709Z,27.75
2018-08-21T12:00:41.740Z,27.66
2018-08-21T12:01:41.989Z,27.46
2018-08-21T12:02:41.775Z,26.79
2018-08-21T12:03:41.793Z,27.17
2018-08-21T12:04:41.806Z,27.00
2018-08-21T12:05:41.827Z,26.22
2018-08-21T12:06:41.993Z,26.70
2018-08-21T12:07:41.863Z,26.61
2018-08-21T12:08:41.881Z,25.55
2018-08-21T12:09:41.896Z,26.04
2018-08-21T12:10:41.910Z,25.27
2018-08-21T12:11:42.076Z,25.37
2018-08-21T12:12:41.948Z,25.55
2018-08-21T12:13:41.968Z,26.04
2018-08-21T12:14:42.023Z,25.75
2018-08-21T12:15:42.003Z,26.33
2018-08-21T12:16:42.245Z,25.37
2018-08-21T12:17:42.020Z,25.37
2018-08-21T12:18:42.053Z,25.46
2018-08-21T12:19:42.056Z,25.27
2018-08-21T12:20:42.091Z,25.46
2018-08-21T12:21:42.363Z,25.46
2018-08-21T12:22:42.122Z,25.46
2018-08-21T12:23:42.204Z,25.37
2018-08-21T12:24:42.165Z,25.37
2018-08-21T12:25:42.177Z,24.69
2018-08-21T12:26:42.325Z,24.98
2018-08-21T12:27:42.218Z,24.98
2018-08-21T12:28:42.237Z,24.61
2018-08-21T12:29:42.256Z,24.41
2018-08-21T12:30:42.249Z,24.22
2018-08-21T12:31:42.442Z,24.03
2018-08-21T12:32:42.289Z,23.65
2018-08-21T12:33:42.324Z,23.65
2018-08-21T12:34:42.343Z,22.98
2018-08-21T12:35:42.361Z,22.59
2018-08-21T12:36:42.466Z,22.70
2018-08-21T12:37:42.396Z,22.50
2018-08-21T12:38:42.438Z,22.31
2018-08-21T12:39:42.418Z,22.31
2018-08-21T12:40:42.454Z,22.02
2018-08-21T12:41:42.626Z,22.02
2018-08-21T12:42:42.494Z,22.22
2018-08-21T12:43:42.513Z,22.22
2018-08-21T12:44:42.515Z,22.12
2018-08-21T12:45:42.558Z,21.94
2018-08-21T12:46:42.723Z,21.94
2018-08-21T12:47:42.573Z,22.31
2018-08-21T12:48:42.683Z,21.84
2018-08-21T12:49:43.172Z,21.44
2018-08-21T12:50:42.645Z,21.94
2018-08-21T12:51:42.821Z,20.97
2018-08-21T12:52:42.695Z,21.45